Time;durP1;ratioP1;P1;durP2;ratioP2;P2;SDS_P1;SDS_P2;PMS_P1;PMS_P2;Temp;Humidity;BMP_temperature;BMP_pressure;BME280_temperature;BME280_humidity;BME280_pressure;Samples;Min_cycle;Max_cycle;Signal;HPM_P1;HPM_P2
2022/09/21 00:00:32;;;;;;;;;;;11.30;99.90;;;;;;5040175;28;20588;-67
2022/09/21 00:02:57;;;;;;;;;;;11.30;99.90;;;;;;5039288;28;19966;-67
2022/09/21 00:05:23;;;;;;;;;;;11.30;99.90;;;;;;5040967;28;19923;-67
2022/09/21 00:07:49;;;;;;;;;;;11.20;99.90;;;;;;5021816;28;20380;-67
2022/09/21 00:10:15;;;;;;;;;;;11.20;99.90;;;;;;5038966;28;19924;-66
2022/09/21 00:12:41;;;;;;;;;;;11.10;99.90;;;;;;5033790;28;19960;-67
2022/09/21 00:15:08;;;;;;;;;;;11.00;99.90;;;;;;5038428;28;20383;-67
2022/09/21 00:17:34;;;;;;;;;;;11.00;99.90;;;;;;5019804;28;19921;-67
2022/09/21 00:20:02;;;;;;;;;;;10.90;99.90;;;;;;5034211;28;19956;-66
2022/09/21 00:22:28;;;;;;;;;;;10.90;99.90;;;;;;5037630;28;19920;-67
2022/09/21 00:24:54;;;;;;;;;;;10.80;99.90;;;;;;5040259;28;19988;-67
2022/09/21 00:27:19;;;;;;;;;;;10.70;99.90;;;;;;5039706;28;19963;-67
2022/09/21 00:29:45;;;;;;;;;;;10.70;99.90;;;;;;5036631;28;19952;-66
2022/09/21 00:32:10;;;;;;;;;;;10.60;99.90;;;;;;5028172;28;19979;-66
2022/09/21 00:34:36;;;;;;;;;;;10.50;99.90;;;;;;5031618;28;19925;-69
2022/09/21 00:37:01;;;;;;;;;;;10.40;99.90;;;;;;5036423;28;20363;-67
2022/09/21 00:39:27;;;;;;;;;;;10.40;99.90;;;;;;5037399;28;19927;-66
2022/09/21 00:41:52;;;;;;;;;;;10.30;99.90;;;;;;5052828;28;19967;-67
2022/09/21 00:44:27;;;;;;;;;;;10.30;99.90;;;;;;5039972;28;19923;-66
2022/09/21 00:46:54;;;;;;;;;;;10.20;99.90;;;;;;5032769;28;20026;-67
2022/09/21 00:49:20;;;;;;;;;;;10.20;99.90;;;;;;5040033;28;19920;-67
2022/09/21 00:51:46;;;;;;;;;;;10.10;99.90;;;;;;5024109;28;19920;-66
2022/09/21 00:54:14;;;;;;;;;;;10.10;99.90;;;;;;5038684;28;19924;-67
2022/09/21 00:56:39;;;;;;;;;;;10.00;99.90;;;;;;5033123;28;19921;-67
2022/09/21 00:59:05;;;;;;;;;;;10.00;99.90;;;;;;5028940;28;20297;-67
2022/09/21 01:01:31;;;;;;;;;;;9.90;99.90;;;;;;5040114;28;19921;-66
2022/09/21 01:03:57;;;;;;;;;;;9.90;99.90;;;;;;5039665;28;20388;-67
2022/09/21 01:06:23;;;;;;;;;;;9.80;99.90;;;;;;5044167;28;19999;-67
2022/09/21 01:08:53;;;;;;;;;;;9.80;99.90;;;;;;5037873;28;19956;-66
2022/09/21 01:11:24;;;;;;;;;;;9.80;99.90;;;;;;5024071;28;19913;-66
2022/09/21 01:13:49;;;;;;;;;;;9.80;99.90;;;;;;5024076;28;19960;-66
2022/09/21 01:16:21;;;;;;;;;;;9.80;99.90;;;;;;5042574;28;20349;-66
2022/09/21 01:18:56;;;;;;;;;;;9.80;99.90;;;;;;5042769;28;20016;-66
2022/09/21 01:21:22;;;;;;;;;;;9.90;99.90;;;;;;5041921;28;19999;-65
2022/09/21 01:24:07;;;;;;;;;;;10.00;99.90;;;;;;5042758;28;20380;-66
2022/09/21 01:26:45;;;;;;;;;;;10.00;99.90;;;;;;5040359;28;19920;-68
2022/09/21 01:29:30;;;;;;;;;;;9.90;99.90;;;;;;5041668;28;19920;-65
2022/09/21 01:32:01;;;;;;;;;;;9.90;99.90;;;;;;5042363;28;19917;-66
2022/09/21 01:34:39;;;;;;;;;;;9.90;99.90;;;;;;5038336;28;20615;-65
2022/09/21 01:37:08;;;;;;;;;;;9.90;99.90;;;;;;5042007;28;19990;-65
2022/09/21 01:39:34;;;;;;;;;;;9.90;99.90;;;;;;5042612;28;19923;-65
2022/09/21 01:42:01;;;;;;;;;;;9.90;99.90;;;;;;5043500;28;20323;-66
2022/09/21 01:44:32;;;;;;;;;;;9.90;99.90;;;;;;5040870;28;19916;-66
2022/09/21 01:46:59;;;;;;;;;;;9.80;99.90;;;;;;5042227;28;19924;-65
2022/09/21 01:49:45;;;;;;;;;;;9.80;99.90;;;;;;5041348;28;20489;-65
2022/09/21 01:52:13;;;;;;;;;;;9.80;99.90;;;;;;5040937;28;19917;-66
2022/09/21 01:54:45;;;;;;;;;;;9.80;99.90;;;;;;5043500;28;19940;-66
2022/09/21 01:57:22;;;;;;;;;;;9.70;99.90;;;;;;5031921;28;19920;-65
2022/09/21 01:59:58;;;;;;;;;;;9.60;99.90;;;;;;5040998;28;19913;-66
2022/09/21 02:02:24;;;;;;;;;;;9.60;99.90;;;;;;5037793;28;19916;-66
2022/09/21 02:04:49;;;;;;;;;;;9.50;99.90;;;;;;5041856;28;19917;-66
2022/09/21 02:07:16;;;;;;;;;;;9.50;99.90;;;;;;5040633;28;19959;-66
2022/09/21 02:09:42;;;;;;;;;;;9.50;99.90;;;;;;5040127;28;20387;-65
2022/09/21 02:12:08;;;;;;;;;;;9.50;99.90;;;;;;5041823;28;19921;-66
2022/09/21 02:14:35;;;;;;;;;;;9.50;99.90;;;;;;5035922;28;20473;-66
2022/09/21 02:17:04;;;;;;;;;;;9.60;99.90;;;;;;5040599;28;19927;-68
2022/09/21 02:19:48;;;;;;;;;;;9.50;99.90;;;;;;5038891;28;20017;-68
2022/09/21 02:22:21;;;;;;;;;;;9.50;99.90;;;;;;5040055;28;20420;-65
2022/09/21 02:24:49;;;;;;;;;;;9.40;99.90;;;;;;5038883;28;20075;-66
2022/09/21 02:27:24;;;;;;;;;;;9.30;99.90;;;;;;5028153;28;19971;-66
2022/09/21 02:30:12;;;;;;;;;;;9.30;99.90;;;;;;5033436;28;19916;-65
2022/09/21 02:32:38;;;;;;;;;;;9.20;99.90;;;;;;5041120;28;19925;-66
2022/09/21 02:35:14;;;;;;;;;;;9.10;99.90;;;;;;5042491;28;19925;-65
2022/09/21 02:38:02;;;;;;;;;;;9.10;99.90;;;;;;5031485;28;19917;-66
2022/09/21 02:40:34;;;;;;;;;;;9.00;99.90;;;;;;5034383;28;19952;-65
2022/09/21 02:43:03;;;;;;;;;;;9.00;99.90;;;;;;5042153;28;19924;-66
2022/09/21 02:45:35;;;;;;;;;;;9.00;99.90;;;;;;5040981;28;20045;-65
2022/09/21 02:48:15;;;;;;;;;;;9.00;99.90;;;;;;5043227;28;19916;-65
2022/09/21 02:50:46;;;;;;;;;;;9.10;99.90;;;;;;5026095;28;19923;-66
2022/09/21 02:53:14;;;;;;;;;;;9.00;99.90;;;;;;5038553;28;19924;-66
2022/09/21 02:55:40;;;;;;;;;;;9.00;99.90;;;;;;5039241;28;19916;-65
2022/09/21 02:58:08;;;;;;;;;;;9.00;99.90;;;;;;5041940;28;19983;-65
2022/09/21 03:00:34;;;;;;;;;;;9.00;99.90;;;;;;5042059;28;19970;-66
2022/09/21 03:03:14;;;;;;;;;;;8.90;99.90;;;;;;5042045;28;19918;-66
2022/09/21 03:05:40;;;;;;;;;;;8.90;99.90;;;;;;5041293;28;19974;-66
2022/09/21 03:08:06;;;;;;;;;;;8.70;99.90;;;;;;5038037;28;19917;-65
2022/09/21 03:10:31;;;;;;;;;;;8.70;99.90;;;;;;5032761;28;19916;-68
2022/09/21 03:12:58;;;;;;;;;;;8.60;99.90;;;;;;5035383;28;19921;-68
2022/09/21 03:15:24;;;;;;;;;;;8.50;99.90;;;;;;5032811;28;19956;-66
2022/09/21 03:17:50;;;;;;;;;;;8.50;99.90;;;;;;5037148;28;20392;-65
2022/09/21 03:20:15;;;;;;;;;;;8.50;99.90;;;;;;5021721;28;19939;-66
2022/09/21 03:22:41;;;;;;;;;;;8.40;99.90;;;;;;5039013;28;19924;-66
2022/09/21 03:25:09;;;;;;;;;;;8.40;99.90;;;;;;5040750;28;19963;-68
2022/09/21 03:27:34;;;;;;;;;;;8.40;99.90;;;;;;5038470;28;19923;-66
2022/09/21 03:30:00;;;;;;;;;;;8.40;99.90;;;;;;5039193;28;19917;-68
2022/09/21 03:32:25;;;;;;;;;;;8.40;99.90;;;;;;5030888;28;19917;-68
2022/09/21 03:34:51;;;;;;;;;;;8.40;99.90;;;;;;5031132;28;19924;-66
2022/09/21 03:37:16;;;;;;;;;;;8.30;99.90;;;;;;5041069;28;20524;-66
2022/09/21 03:39:42;;;;;;;;;;;8.30;99.90;;;;;;5039360;28;20458;-65
2022/09/21 03:42:08;;;;;;;;;;;8.30;99.90;;;;;;5040977;28;20474;-66
2022/09/21 03:44:36;;;;;;;;;;;8.30;99.90;;;;;;5038042;28;19967;-68
2022/09/21 03:47:01;;;;;;;;;;;8.30;99.90;;;;;;5038875;28;20414;-66
2022/09/21 03:49:28;;;;;;;;;;;8.20;99.90;;;;;;5039035;28;19920;-65
2022/09/21 03:51:53;;;;;;;;;;;8.20;99.90;;;;;;5035658;28;19979;-66
2022/09/21 03:54:19;;;;;;;;;;;8.20;99.90;;;;;;5040422;28;20273;-68
2022/09/21 03:56:45;;;;;;;;;;;8.20;99.90;;;;;;5041912;28;20058;-68
2022/09/21 03:59:11;;;;;;;;;;;8.20;99.90;;;;;;5040292;28;20031;-65
2022/09/21 04:01:36;;;;;;;;;;;8.20;99.90;;;;;;5039679;28;19917;-68
2022/09/21 04:04:02;;;;;;;;;;;8.20;99.90;;;;;;5039183;28;19917;-68
2022/09/21 04:06:27;;;;;;;;;;;8.30;99.90;;;;;;5041727;28;20088;-65
2022/09/21 04:08:53;;;;;;;;;;;8.30;99.90;;;;;;5040676;28;19917;-66
2022/09/21 04:11:21;;;;;;;;;;;8.20;99.90;;;;;;5041390;28;20517;-65
2022/09/21 04:13:56;;;;;;;;;;;8.20;99.90;;;;;;5038903;28;19916;-66
2022/09/21 04:16:23;;;;;;;;;;;8.20;99.90;;;;;;5038687;28;20001;-66
2022/09/21 04:18:49;;;;;;;;;;;8.20;99.90;;;;;;5039889;28;19920;-66
2022/09/21 04:21:18;;;;;;;;;;;8.10;99.90;;;;;;5041082;28;20382;-65
2022/09/21 04:23:43;;;;;;;;;;;8.00;99.90;;;;;;5041322;28;20596;-65
2022/09/21 04:26:26;;;;;;;;;;;8.00;99.90;;;;;;5038941;28;20653;-66
2022/09/21 04:28:52;;;;;;;;;;;8.00;99.90;;;;;;5041559;28;19966;-65
2022/09/21 04:31:18;;;;;;;;;;;7.90;99.90;;;;;;5033074;28;19921;-68
2022/09/21 04:33:43;;;;;;;;;;;7.80;99.90;;;;;;5032221;28;20000;-68
2022/09/21 04:36:09;;;;;;;;;;;7.80;99.90;;;;;;5042940;28;19924;-66
2022/09/21 04:38:34;;;;;;;;;;;7.80;99.90;;;;;;5038103;28;20314;-66
2022/09/21 04:41:00;;;;;;;;;;;7.80;99.90;;;;;;5042848;28;19916;-66
2022/09/21 04:43:26;;;;;;;;;;;7.70;99.90;;;;;;5045289;28;19921;-66
2022/09/21 04:45:51;;;;;;;;;;;7.80;99.90;;;;;;5043007;28;19917;-66
2022/09/21 04:48:17;;;;;;;;;;;7.70;99.90;;;;;;5041580;28;19926;-65
2022/09/21 04:50:43;;;;;;;;;;;7.70;99.90;;;;;;5041601;28;20288;-66
2022/09/21 04:53:08;;;;;;;;;;;7.70;99.90;;;;;;5043332;28;19970;-66
2022/09/21 04:55:34;;;;;;;;;;;7.70;99.90;;;;;;5043907;28;19917;-68
2022/09/21 04:58:00;;;;;;;;;;;7.60;99.90;;;;;;5041006;28;19940;-66
2022/09/21 05:00:25;;;;;;;;;;;7.60;99.90;;;;;;5033119;28;20012;-68
2022/09/21 05:02:51;;;;;;;;;;;7.60;99.90;;;;;;5041950;28;19920;-68
2022/09/21 05:05:16;;;;;;;;;;;7.60;99.90;;;;;;5042493;28;19939;-68
2022/09/21 05:07:42;;;;;;;;;;;7.60;99.90;;;;;;5044056;28;19917;-68
2022/09/21 05:10:08;;;;;;;;;;;7.50;99.90;;;;;;5042376;28;19928;-65
2022/09/21 05:12:34;;;;;;;;;;;7.30;99.90;;;;;;5040121;28;20015;-68
2022/09/21 05:15:00;;;;;;;;;;;7.20;99.90;;;;;;5042702;28;19931;-66
2022/09/21 05:17:26;;;;;;;;;;;7.20;99.90;;;;;;5039790;28;20170;-65
2022/09/21 05:19:54;;;;;;;;;;;7.20;99.90;;;;;;5042398;28;20467;-66
2022/09/21 05:22:20;;;;;;;;;;;7.20;99.90;;;;;;5041854;28;20471;-68
2022/09/21 05:24:46;;;;;;;;;;;7.30;99.90;;;;;;5027297;28;19924;-65
2022/09/21 05:27:12;;;;;;;;;;;7.30;99.90;;;;;;5040738;28;19917;-66
2022/09/21 05:29:38;;;;;;;;;;;7.30;99.90;;;;;;5041854;28;20007;-68
2022/09/21 05:32:09;;;;;;;;;;;7.40;99.90;;;;;;5042873;28;19916;-68
2022/09/21 05:34:37;;;;;;;;;;;7.50;99.90;;;;;;5035195;28;19990;-68
2022/09/21 05:37:05;;;;;;;;;;;7.50;99.90;;;;;;5040899;28;19924;-66
2022/09/21 05:39:31;;;;;;;;;;;7.50;99.90;;;;;;5041124;28;20307;-68
2022/09/21 05:41:57;;;;;;;;;;;7.50;99.90;;;;;;5040275;28;20263;-66
2022/09/21 05:44:22;;;;;;;;;;;7.50;99.90;;;;;;5038667;28;19968;-66
2022/09/21 05:46:52;;;;;;;;;;;7.50;99.90;;;;;;5042896;28;19967;-66
2022/09/21 05:49:33;;;;;;;;;;;7.50;99.90;;;;;;5034520;28;19995;-66
2022/09/21 05:52:05;;;;;;;;;;;7.50;99.90;;;;;;5043156;28;19956;-66
2022/09/21 05:54:38;;;;;;;;;;;7.50;99.90;;;;;;5038060;28;19975;-68
2022/09/21 05:57:30;;;;;;;;;;;7.50;99.90;;;;;;5039878;28;21166;-66
2022/09/21 06:00:03;;;;;;;;;;;7.40;99.90;;;;;;5003130;28;20350;-65
2022/09/21 06:02:34;;;;;;;;;;;7.40;99.90;;;;;;5040826;28;19943;-66
2022/09/21 06:05:00;;;;;;;;;;;7.50;99.90;;;;;;5034379;28;20039;-68
2022/09/21 06:07:25;;;;;;;;;;;7.50;99.90;;;;;;5036031;28;20040;-68
2022/09/21 06:09:51;;;;;;;;;;;7.50;99.90;;;;;;5034164;28;20506;-66
2022/09/21 06:12:17;;;;;;;;;;;7.60;99.90;;;;;;5034000;28;19913;-68
2022/09/21 06:14:43;;;;;;;;;;;7.70;99.90;;;;;;5032613;28;20284;-66
2022/09/21 06:17:08;;;;;;;;;;;7.70;99.90;;;;;;5036710;28;19921;-66
2022/09/21 06:19:34;;;;;;;;;;;7.80;99.90;;;;;;5029828;28;19939;-66
2022/09/21 06:21:59;;;;;;;;;;;7.80;99.90;;;;;;5029260;28;19917;-68
2022/09/21 06:24:25;;;;;;;;;;;7.90;99.90;;;;;;5028109;28;20082;-66
2022/09/21 06:26:50;;;;;;;;;;;8.00;99.90;;;;;;5032829;28;19953;-66
2022/09/21 06:29:22;;;;;;;;;;;7.90;99.90;;;;;;5028192;28;19959;-66
2022/09/21 06:31:48;;;;;;;;;;;7.90;99.90;;;;;;5027382;28;19978;-66
2022/09/21 06:34:14;;;;;;;;;;;8.00;99.90;;;;;;5029270;28;19920;-66
2022/09/21 06:36:39;;;;;;;;;;;8.10;99.90;;;;;;5030569;28;19923;-66
2022/09/21 06:39:05;;;;;;;;;;;8.30;99.90;;;;;;5027141;28;20328;-66
2022/09/21 06:41:31;;;;;;;;;;;8.90;99.90;;;;;;5029909;28;19963;-66
2022/09/21 06:43:56;;;;;;;;;;;8.90;99.90;;;;;;5039432;28;20370;-66
2022/09/21 06:46:22;;;;;;;;;;;9.00;99.90;;;;;;5036102;28;20027;-66
2022/09/21 06:48:48;;;;;;;;;;;9.00;99.90;;;;;;5031568;28;19917;-66
2022/09/21 06:51:14;;;;;;;;;;;9.00;99.90;;;;;;5033772;28;19921;-66
2022/09/21 06:53:39;;;;;;;;;;;9.10;99.90;;;;;;5032977;28;19924;-66
2022/09/21 06:56:06;;;;;;;;;;;9.10;99.90;;;;;;5031696;28;20380;-66
2022/09/21 06:58:33;;;;;;;;;;;9.20;99.90;;;;;;5032329;28;19913;-66
2022/09/21 07:01:09;;;;;;;;;;;9.30;99.90;;;;;;5027083;28;19927;-66
2022/09/21 07:03:35;;;;;;;;;;;9.30;99.90;;;;;;5025741;28;20703;-66
2022/09/21 07:06:01;;;;;;;;;;;9.30;99.90;;;;;;5035122;28;19921;-66
2022/09/21 07:08:26;;;;;;;;;;;9.40;99.90;;;;;;5033357;28;20039;-66
2022/09/21 07:10:52;;;;;;;;;;;9.50;99.90;;;;;;5032003;28;19960;-66
2022/09/21 07:13:17;;;;;;;;;;;9.60;99.90;;;;;;5033981;28;20435;-66
2022/09/21 07:15:43;;;;;;;;;;;9.70;99.90;;;;;;5034806;28;19917;-69
2022/09/21 07:18:09;;;;;;;;;;;9.70;99.90;;;;;;5032342;28;19921;-68
2022/09/21 07:20:35;;;;;;;;;;;9.80;99.90;;;;;;5031582;28;20383;-68
2022/09/21 07:23:08;;;;;;;;;;;10.00;99.90;;;;;;5033556;28;20392;-68
2022/09/21 07:25:33;;;;;;;;;;;10.10;99.90;;;;;;5026734;28;19921;-69
2022/09/21 07:27:59;;;;;;;;;;;10.10;99.90;;;;;;5034462;28;20379;-68
2022/09/21 07:30:26;;;;;;;;;;;10.20;99.90;;;;;;5031981;28;20380;-68
2022/09/21 07:32:51;;;;;;;;;;;10.30;99.90;;;;;;5033379;28;19996;-69
2022/09/21 07:35:18;;;;;;;;;;;10.40;99.90;;;;;;5031671;28;20324;-66
2022/09/21 07:37:43;;;;;;;;;;;10.60;99.90;;;;;;5032947;28;19924;-68
2022/09/21 07:40:09;;;;;;;;;;;10.70;99.90;;;;;;5024267;28;19917;-66
2022/09/21 07:42:34;;;;;;;;;;;10.80;99.90;;;;;;5038012;28;19920;-67
2022/09/21 07:45:00;;;;;;;;;;;10.90;99.90;;;;;;5041032;28;20027;-68
2022/09/21 07:47:26;;;;;;;;;;;11.10;99.90;;;;;;5040458;28;20283;-66
2022/09/21 07:49:52;;;;;;;;;;;11.20;99.90;;;;;;5039288;28;19923;-66
2022/09/21 07:52:18;;;;;;;;;;;11.30;99.90;;;;;;5038329;28;19916;-68
2022/09/21 07:54:43;;;;;;;;;;;11.50;99.90;;;;;;5040006;28;20019;-66
2022/09/21 07:59:57;;;;;;;;;;;13.40;99.90;;;;;;5030034;28;19930;-66
2022/09/21 08:02:22;;;;;;;;;;;15.60;99.90;;;;;;5031065;28;19917;-67
2022/09/21 08:04:48;;;;;;;;;;;16.70;99.90;;;;;;5032730;28;19940;-67
2022/09/21 08:07:13;;;;;;;;;;;17.50;99.90;;;;;;5033722;28;19916;-66
2022/09/21 08:09:40;;;;;;;;;;;18.00;99.90;;;;;;5036536;28;20375;-66
2022/09/21 08:12:05;;;;;;;;;;;21.30;99.90;;;;;;5038390;28;20047;-66
2022/09/21 08:14:31;;;;;;;;;;;24.10;95.10;;;;;;5039974;28;19963;-66
2022/09/21 08:16:57;;;;;;;;;;;26.50;82.60;;;;;;5040525;28;19966;-67
2022/09/21 08:19:24;;;;;;;;;;;28.50;70.50;;;;;;5036282;28;19916;-66
2022/09/21 08:21:50;;;;;;;;;;;29.40;63.80;;;;;;5035717;28;20147;-67
2022/09/21 08:24:15;;;;;;;;;;;29.90;59.20;;;;;;5032162;28;19932;-67
2022/09/21 08:26:41;;;;;;;;;;;30.80;56.40;;;;;;5031546;28;19920;-67
2022/09/21 08:29:07;;;;;;;;;;;30.80;54.30;;;;;;5033837;28;20280;-67
2022/09/21 08:31:32;;;;;;;;;;;31.30;53.20;;;;;;5028703;28;20054;-67
2022/09/21 08:33:59;;;;;;;;;;;31.60;52.10;;;;;;5031125;28;19917;-67
2022/09/21 08:36:25;;;;;;;;;;;32.20;51.30;;;;;;5018832;28;20012;-67
2022/09/21 08:38:51;;;;;;;;;;;31.70;49.50;;;;;;5017605;28;20475;-67
2022/09/21 08:41:22;;;;;;;;;;;31.80;49.50;;;;;;5016711;28;20035;-67
2022/09/21 08:44:17;;;;;;;;;;;32.20;49.30;;;;;;5008580;28;20561;-67
2022/09/21 08:46:45;;;;;;;;;;;31.80;49.50;;;;;;5007884;28;19917;-67
2022/09/21 08:49:16;;;;;;;;;;;31.50;50.00;;;;;;5016960;28;19939;-67
2022/09/21 08:51:46;;;;;;;;;;;31.10;48.60;;;;;;5006977;28;19928;-66
2022/09/21 08:54:18;;;;;;;;;;;31.20;49.20;;;;;;5007425;28;20006;-67
2022/09/21 08:56:44;;;;;;;;;;;31.30;49.70;;;;;;5015723;28;19923;-67
2022/09/21 08:59:14;;;;;;;;;;;32.30;51.00;;;;;;5003570;28;20379;-67
2022/09/21 09:01:58;;;;;;;;;;;32.10;49.80;;;;;;5009168;28;20305;-67
2022/09/21 09:04:24;;;;;;;;;;;32.30;47.50;;;;;;5015583;28;19925;-67
2022/09/21 09:06:56;;;;;;;;;;;32.70;45.30;;;;;;5017617;28;20360;-67
2022/09/21 09:09:22;;;;;;;;;;;33.00;46.00;;;;;;5011555;28;20075;-67
2022/09/21 09:11:53;;;;;;;;;;;33.40;49.40;;;;;;5016590;28;20428;-68
2022/09/21 09:14:19;;;;;;;;;;;32.40;48.20;;;;;;5015669;28;19925;-67
2022/09/21 09:16:55;;;;;;;;;;;32.80;46.30;;;;;;5019970;28;20003;-67
2022/09/21 09:19:53;;;;;;;;;;;32.70;46.70;;;;;;5007138;28;20000;-67
2022/09/21 09:22:31;;;;;;;;;;;32.40;49.00;;;;;;4989028;28;20443;-68
2022/09/21 09:24:59;;;;;;;;;;;32.50;48.10;;;;;;5007656;28;19932;-67
2022/09/21 09:27:35;;;;;;;;;;;32.50;45.90;;;;;;5009344;28;19971;-67
2022/09/21 09:30:03;;;;;;;;;;;32.50;48.30;;;;;;5007789;28;19924;-66
2022/09/21 09:32:44;;;;;;;;;;;31.80;46.40;;;;;;5010877;28;20172;-66
2022/09/21 09:35:39;;;;;;;;;;;32.10;45.20;;;;;;5022545;28;20520;-66
2022/09/21 09:38:10;;;;;;;;;;;32.20;50.20;;;;;;5031009;28;20295;-66
2022/09/21 09:40:45;;;;;;;;;;;31.90;44.80;;;;;;5039599;28;20020;-66
2022/09/21 09:43:17;;;;;;;;;;;31.60;50.60;;;;;;5036643;28;19927;-66
2022/09/21 09:45:42;;;;;;;;;;;32.00;46.40;;;;;;5037183;28;19921;-66
2022/09/21 09:48:08;;;;;;;;;;;32.40;46.90;;;;;;5039867;28;19927;-67
2022/09/21 09:50:36;;;;;;;;;;;32.20;42.30;;;;;;5042289;28;19916;-67
2022/09/21 09:53:03;;;;;;;;;;;32.30;42.00;;;;;;5042418;28;20451;-66
2022/09/21 09:55:37;;;;;;;;;;;32.00;43.30;;;;;;5035791;28;19921;-66
2022/09/21 09:58:03;;;;;;;;;;;32.00;44.60;;;;;;5038956;28;20380;-67
2022/09/21 10:00:28;;;;;;;;;;;31.70;47.10;;;;;;5036238;28;19994;-67
2022/09/21 10:02:55;;;;;;;;;;;31.60;46.10;;;;;;5034543;28;20045;-66
2022/09/21 10:05:29;;;;;;;;;;;31.40;45.30;;;;;;5035076;28;19930;-66
2022/09/21 10:07:55;;;;;;;;;;;31.40;47.40;;;;;;5041179;28;19967;-67
2022/09/21 10:10:23;;;;;;;;;;;31.10;47.10;;;;;;5040149;28;19956;-66
2022/09/21 10:12:50;;;;;;;;;;;31.40;47.70;;;;;;5036739;28;20011;-66
2022/09/21 10:15:17;;;;;;;;;;;31.60;47.40;;;;;;5038558;28;19957;-66
2022/09/21 10:17:44;;;;;;;;;;;31.60;46.70;;;;;;5040302;28;19921;-66
2022/09/21 10:20:14;;;;;;;;;;;31.50;43.30;;;;;;5027275;28;20010;-66
2022/09/21 10:22:41;;;;;;;;;;;31.30;44.90;;;;;;5034849;28;19999;-67
2022/09/21 10:25:13;;;;;;;;;;;31.20;44.70;;;;;;5019624;28;20434;-66
2022/09/21 10:27:43;;;;;;;;;;;30.90;45.90;;;;;;5033049;28;19921;-67
2022/09/21 10:30:28;;;;;;;;;;;31.10;40.50;;;;;;5039037;28;19921;-66
2022/09/21 10:32:55;;;;;;;;;;;30.80;43.30;;;;;;5023095;28;19917;-66
2022/09/21 10:35:23;;;;;;;;;;;30.90;48.20;;;;;;5033255;28;20236;-66
2022/09/21 10:38:07;;;;;;;;;;;30.60;46.70;;;;;;5034680;28;20396;-67
2022/09/21 10:40:35;;;;;;;;;;;30.90;42.90;;;;;;5021509;28;20304;-67
2022/09/21 10:43:00;;;;;;;;;;;31.10;43.00;;;;;;5036614;28;19917;-66
2022/09/21 10:45:27;;;;;;;;;;;30.90;45.60;;;;;;5039079;28;19917;-66
2022/09/21 10:48:11;;;;;;;;;;;31.10;42.10;;;;;;5039102;28;20296;-66
2022/09/21 10:50:38;;;;;;;;;;;30.90;45.50;;;;;;5036756;28;20500;-66
2022/09/21 10:53:19;;;;;;;;;;;30.80;45.30;;;;;;5042668;28;20269;-66
2022/09/21 10:55:47;;;;;;;;;;;31.00;41.30;;;;;;5037895;28;20019;-66
2022/09/21 10:58:13;;;;;;;;;;;30.80;45.70;;;;;;5039595;28;20344;-67
2022/09/21 11:00:40;;;;;;;;;;;30.90;41.90;;;;;;4682671;28;10000576;-66
2022/09/21 11:03:24;;;;;;;;;;;31.10;44.20;;;;;;5032041;28;19917;-67
2022/09/21 11:05:51;;;;;;;;;;;31.00;41.50;;;;;;5031875;28;19925;-67
2022/09/21 11:08:26;;;;;;;;;;;30.60;41.80;;;;;;5034516;28;19917;-66
2022/09/21 11:11:03;;;;;;;;;;;30.10;45.00;;;;;;5032871;28;20226;-66
2022/09/21 11:13:35;;;;;;;;;;;30.70;45.10;;;;;;5031497;28;20031;-66
2022/09/21 11:16:23;;;;;;;;;;;30.80;44.20;;;;;;5039015;28;20396;-66
2022/09/21 11:18:54;;;;;;;;;;;30.40;40.60;;;;;;5037330;28;19927;-66
2022/09/21 11:21:31;;;;;;;;;;;30.10;42.90;;;;;;5029573;28;20271;-66
2022/09/21 11:24:01;;;;;;;;;;;29.50;45.90;;;;;;5037596;28;19924;-66
2022/09/21 11:26:35;;;;;;;;;;;28.80;46.90;;;;;;5037831;28;20718;-66
2022/09/21 11:29:07;;;;;;;;;;;27.90;48.30;;;;;;5033814;28;19963;-66
2022/09/21 11:31:39;;;;;;;;;;;27.50;51.00;;;;;;5030400;28;19981;-66
2022/09/21 11:34:15;;;;;;;;;;;26.90;48.60;;;;;;5023758;28;20518;-66
2022/09/21 11:36:59;;;;;;;;;;;26.60;51.40;;;;;;5036757;28;20015;-66
2022/09/21 11:39:45;;;;;;;;;;;26.40;50.50;;;;;;5033371;28;19979;-66
2022/09/21 11:42:23;;;;;;;;;;;26.30;49.60;;;;;;5038730;28;19920;-66
2022/09/21 11:44:52;;;;;;;;;;;26.50;51.80;;;;;;5035010;28;19963;-66
2022/09/21 11:47:23;;;;;;;;;;;26.50;49.20;;;;;;5032197;28;19924;-66
2022/09/21 11:50:07;;;;;;;;;;;26.40;52.10;;;;;;5035178;28;19917;-67
2022/09/21 11:52:38;;;;;;;;;;;26.40;51.80;;;;;;5029215;28;20175;-67
2022/09/21 11:55:17;;;;;;;;;;;26.60;49.20;;;;;;5039141;28;19921;-66
2022/09/21 11:58:02;;;;;;;;;;;26.80;51.90;;;;;;5037547;28;20408;-66
2022/09/21 12:00:32;;;;;;;;;;;27.00;47.70;;;;;;5020424;28;19921;-66
2022/09/21 12:03:17;;;;;;;;;;;26.80;47.80;;;;;;5540491;22;20163;-71
2022/09/21 12:05:54;;;;;;;;;;;26.60;53.60;;;;;;5018102;28;19959;-70
2022/09/21 12:08:39;;;;;;;;;;;26.70;50.10;;;;;;5021082;28;20189;-71
2022/09/21 12:11:20;;;;;;;;;;;27.00;46.40;;;;;;5023947;28;20413;-71
2022/09/21 12:14:01;;;;;;;;;;;26.50;51.50;;;;;;5026697;28;19979;-72
2022/09/21 12:16:45;;;;;;;;;;;25.50;50.20;;;;;;5024746;28;20439;-73
2022/09/21 12:19:20;;;;;;;;;;;24.70;53.90;;;;;;5016729;28;19943;-72
2022/09/21 12:21:48;;;;;;;;;;;23.40;57.50;;;;;;5018867;28;20447;-72
2022/09/21 12:24:16;;;;;;;;;;;23.00;59.60;;;;;;4999170;28;20034;-72
2022/09/21 12:26:44;;;;;;;;;;;22.40;65.40;;;;;;5026792;28;19957;-72
2022/09/21 12:29:20;;;;;;;;;;;21.80;67.80;;;;;;5021808;28;20010;-72
2022/09/21 12:31:58;;;;;;;;;;;21.50;72.40;;;;;;5025532;28;19975;-72
2022/09/21 12:34:25;;;;;;;;;;;21.20;71.80;;;;;;5017267;28;19917;-71
2022/09/21 12:37:17;;;;;;;;;;;20.90;91.10;;;;;;5019312;28;19917;-71
2022/09/21 12:39:46;;;;;;;;;;;20.50;93.30;;;;;;5021126;28;19927;-72
2022/09/21 12:42:15;;;;;;;;;;;20.40;96.30;;;;;;5028229;28;19924;-71
2022/09/21 12:44:53;;;;;;;;;;;20.30;93.30;;;;;;5023437;28;19925;-71
2022/09/21 12:47:40;;;;;;;;;;;20.20;96.80;;;;;;5024858;28;20059;-72
2022/09/21 12:50:14;;;;;;;;;;;20.10;92.90;;;;;;5002767;28;19971;-71
2022/09/21 12:52:40;;;;;;;;;;;20.00;95.90;;;;;;5014732;28;19916;-71
2022/09/21 12:55:24;;;;;;;;;;;20.00;94.90;;;;;;5031298;28;20314;-71
2022/09/21 12:57:59;;;;;;;;;;;20.00;99.70;;;;;;5034367;28;19917;-71
2022/09/21 13:00:27;;;;;;;;;;;20.00;94.80;;;;;;5040737;28;19916;-72
2022/09/21 13:03:03;;;;;;;;;;;19.90;96.80;;;;;;5015923;28;19921;-71
2022/09/21 13:05:46;;;;;;;;;;;19.90;96.40;;;;;;5039544;28;19952;-71
2022/09/21 13:08:13;;;;;;;;;;;20.00;94.70;;;;;;5034757;28;19963;-71
2022/09/21 13:10:41;;;;;;;;;;;20.00;98.80;;;;;;5038775;28;20401;-70
2022/09/21 13:13:22;;;;;;;;;;;20.00;97.90;;;;;;5035698;28;19952;-71
2022/09/21 13:15:48;;;;;;;;;;;20.10;99.90;;;;;;5033067;28;19924;-71
2022/09/21 13:18:33;;;;;;;;;;;20.00;99.90;;;;;;5035199;28;19917;-71
2022/09/21 13:21:18;;;;;;;;;;;20.10;99.90;;;;;;5036367;28;20655;-70
2022/09/21 13:23:51;;;;;;;;;;;20.20;99.90;;;;;;5040170;28;19920;-71
2022/09/21 13:26:26;;;;;;;;;;;20.40;99.90;;;;;;5037037;28;20472;-71
2022/09/21 13:28:55;;;;;;;;;;;20.40;99.90;;;;;;5037941;28;20024;-71
2022/09/21 13:31:28;;;;;;;;;;;20.50;97.40;;;;;;5034365;28;20359;-73
2022/09/21 13:34:07;;;;;;;;;;;20.70;92.90;;;;;;5034946;28;20101;-70
2022/09/21 13:36:36;;;;;;;;;;;20.80;95.20;;;;;;5040439;28;19917;-71
2022/09/21 13:39:04;;;;;;;;;;;20.90;99.10;;;;;;5040929;28;20069;-71
2022/09/21 13:41:29;;;;;;;;;;;21.10;98.70;;;;;;4344730;28;9999947;-70
2022/09/21 13:43:58;;;;;;;;;;;21.30;94.90;;;;;;5040770;28;19923;-69
2022/09/21 13:46:33;;;;;;;;;;;21.50;97.90;;;;;;5036791;28;19928;-70
2022/09/21 13:49:01;;;;;;;;;;;21.60;96.30;;;;;;5031504;28;19920;-70
2022/09/21 13:51:26;;;;;;;;;;;21.50;96.20;;;;;;5031419;28;20015;-70
2022/09/21 13:53:55;;;;;;;;;;;21.40;99.00;;;;;;5034027;28;19996;-70
2022/09/21 13:56:23;;;;;;;;;;;21.30;95.20;;;;;;5032048;28;20402;-69
2022/09/21 13:58:51;;;;;;;;;;;21.30;96.80;;;;;;5034907;28;20027;-70
2022/09/21 14:01:34;;;;;;;;;;;21.30;98.30;;;;;;5030219;28;20023;-70
2022/09/21 14:04:01;;;;;;;;;;;21.30;99.50;;;;;;5049318;28;19932;-70
2022/09/21 14:06:31;;;;;;;;;;;21.30;99.90;;;;;;5043146;28;19916;-70
2022/09/21 14:08:59;;;;;;;;;;;21.30;99.90;;;;;;5032879;28;20034;-70
2022/09/21 14:11:39;;;;;;;;;;;21.20;99.90;;;;;;5034861;28;20443;-70
2022/09/21 14:14:11;;;;;;;;;;;21.10;96.60;;;;;;5034350;28;20225;-69
2022/09/21 14:16:44;;;;;;;;;;;21.20;99.90;;;;;;5032199;28;19916;-70
2022/09/21 14:19:16;;;;;;;;;;;21.20;99.90;;;;;;5023442;28;19917;-69
2022/09/21 14:22:00;;;;;;;;;;;21.00;98.40;;;;;;5041451;28;19916;-70
2022/09/21 14:24:46;;;;;;;;;;;21.00;99.90;;;;;;5034723;28;19952;-70
2022/09/21 14:27:29;;;;;;;;;;;20.80;99.90;;;;;;5034888;28;20367;-70
2022/09/21 14:29:59;;;;;;;;;;;20.80;99.40;;;;;;5034674;28;19920;-71
2022/09/21 14:32:27;;;;;;;;;;;20.80;99.90;;;;;;5030430;28;20028;-71
2022/09/21 14:34:55;;;;;;;;;;;20.80;99.70;;;;;;5031438;28;19917;-70
2022/09/21 14:37:32;;;;;;;;;;;20.80;99.90;;;;;;5035279;28;19917;-70
2022/09/21 14:40:01;;;;;;;;;;;20.70;99.60;;;;;;5015357;28;19952;-70
2022/09/21 14:42:27;;;;;;;;;;;20.70;99.90;;;;;;5034995;28;19929;-70